Northern & Central Napa County

33 Stations

15 Minute Data | America/Los_Angeles
as of 8/30/26 7:49 PM PDT
Station Date Time Temp (°F) RH (%) Dew Pt (°F) Wind Spd (mph) Wind Dir (°) Wind Gust (mph) Latest Rain (In) Daily Rain (In) Daily Max Temp (°F) Daily Min Temp (°F)
Tenma (North Calistoga) 8/30/26 1945 71.6   2.8 - - - - - 0.00 0.00 91.9   1.6 45.6   0.4
Calistoga-Solari 8/30/26 1945 73.8   1.5 44   4 50.5   3.9 1.4   2.3 WSW | 246 2.7   4.2 0.00 0.00 88.5   1.3 44.1   1.2
Calistoga-North 8/30/26 1945 74.0   0.8 47   5 52.7   3.3 - - - 0.00 0.00 92.5   2.2 46.2   0.9
Twomey Calistoga 8/30/26 1945 71.4   0.2 53   2 53.4   1.0 0.5   1.5 ESE | 115 2.3   1.7 0.00 0.00 93.2   2.1 40.8   0.1
Paloma 8/30/26 1945 74.2   0.9 46   9 52.2   3.8 2.9   1.6 ESE | 106 6.1   6.4 0.00 0.00 91.4   0.6 42.4   0.2
Calistoga (Ranch 78) 8/30/26 1945 72.6   0.3 45   7 50.2   3.5 1.5   2.3 W | 268 5.6   1.8 0.00 0.00 90.0   1.3 43.6   1.5
Diamond Mtn (Schramsberg) 8/30/26 1945 71.2   1.5 46   10 49.1   4.1 - - - 0.00 0.00 84.2   1.4 52.0   0.6
Diamond Mtn (McEachran) 8/30/26 1945 73.0   1.6 42   13 48.5   5.8 - - - - - 85.8   1.8 51.7   0.5
Deer Park 8/30/26 1945 69.5   0.1 55   2 52.8   0.9 3.8   2.0 SE | 142 6.7   3.1 0.00 0.00 85.1   1.1 52.8   0.1
St. Helena-North 8/30/26 1945 71.3   1.0 50   0 51.8   0.7 2.8   2.3 S | 179 6.1   3.3 0.00 0.00 86.1   1.6 48.2   2.2
St. Helena (NVV Office) 8/30/26 1945 71.0   1.1 - - 1.6   1.1 ESE | 114 4.3   2.4 0.00 0.00 84.5   1.3 49.1   1.0
Tiara Fria (East St. Helena) 8/30/26 1945 70.1   1.6 57   2 54.3   0.6 2.0   0.4 SE | 139 6.0   0.8 0.00 0.00 83.2   0.9 46.8   0.3
Prisoner Winery 8/30/26 1945 68.3   1.7 61   2 54.5   0.7 1.5   0.7 SSE | 150 3.0   3.3 0.00 0.00 87.1   1.4 45.2   1.5
Rutherford Hill Estate 8/30/26 1945 69.4   1.1 57   1 53.5   0.5 0.9   1.6 SSE | 164 4.6   6.4 0.00 0.00 84.2   0.9 51.2   2.0
Rutherford-North (Mee Ln) 8/30/26 1945 68.6   1.8 60   2 54.3   0.7 1.7   4.3 SSE | 152 4.4   9.4 0.00 0.00 82.4   1.6 42.8   0.9
Rutherford (STS) 8/30/26 1945 67.7   1.5 69   2 57.1   0.5 2.0   2.1 SSE | 148 5.4   3.8 0.00 0.00 84.2   1.8 43.2   1.5
Silver Oak OV 8/30/26 1945 68.0   2.0 63   4 54.9   0.2 6.1   3.3 SE | 134 10.7   4.8 0.00 0.00 80.0   1.5 43.5   1.4
Oakville-NE (Ranch 88) 8/30/26 1945 68.1   1.9 58   3 52.8   0.2 4.6   1.6 S | 172 10.7   2.2 0.00 0.00 82.4   1.6 43.3   1.1
Crossroads Ranch 8/30/26 1945 67.6   2.3 66   3 55.8   0.8 7.0   1.0 SE | 142 11.0   4.2 0.00 0.00 80.7   1.2 44.7   0.9
Oakville 8/30/26 1945 67.6   1.9 63   3 54.5   0.2 5.4   1.9 SE | 132 11.0   0.9 0.00 0.00 79.3   1.8 43.9   1.0
To Kalon Remote (TKKE) 8/30/26 1945 69.0   1.4 - - - - - - - 83.3   1.2 45.0   1.2
To Kalon 8/30/26 1945 67.3   2.4 66   4 55.7   0.3 6.2   0.2 SE | 145 11.5   0.3 0.00 0.00 80.6   1.6 46.0   1.0
To Kalon Remote (TKN5) 8/30/26 1945 68.0   2.2 - - - - - - - 83.9   0.2 45.5   1.3
Jump Rock 8/30/26 1945 67.5   0.1 58   2 52.1   0.9 0.0   1.2 NNW | 339 0.1   4.9 0.00 0.00 83.2   2.5 40.8   0.0
State Lane Ranch 8/30/26 1945 67.8   2.3 67   4 56.6   0.4 3.5   3.0 S | 173 7.2   5.1 0.00 0.00 81.1   1.0 42.6   1.1
Yountville (Ranch 67) 8/30/26 1945 65.4   2.5 65   5 53.6   0.2 5.6   1.0 S | 172 11.1   0.2 0.00 0.00 77.8   2.5 43.4   1.8
Borreo (Soda Canyon) 8/30/26 1945 64.7   1.6 65   2 52.8   0.6 0.8   1.7 E | 97 2.8   3.4 0.00 0.00 78.2   0.1 46.2   0.7
Wappo Hill Floor 8/30/26 1945 65.8   2.9 69   5 55.4   0.6 3.2   2.1 SSE | 158 9.4   1.4 0.00 0.00 79.7   2.1 43.4   0.8
Wappo Hill 8/30/26 1945 65.2   2.9 70   6 55.1   0.5 6.0   1.7 SE | 134 9.6   3.4 0.00 0.00 78.2   1.7 49.7   0.1
Stags Leap Dist (Chimney Rock) 8/30/26 1945 66.4   2.8 71   5 56.7   0.8 3.7   1.3 SSE | 168 8.6   1.8 0.00 0.00 78.8   1.5 42.8   2.4
Stags Leap Dist (Silverado Vineyards) 8/30/26 1945 66.2   2.5 65   5 53.9   0.3 4.6   1.0 SE | 137 10.0   2.7 0.00 0.00 78.6   2.0 43.5   2.0
Yountville-SE (Ranch 85) 8/30/26 1945 66.1   2.6 70   4 56.0   0.7 3.0   2.5 S | 190 7.5   2.3 0.00 0.00 77.6   2.0 45.2   0.9
Yountville-South (Ranch 87) 8/30/26 1945 66.1   3.0 69   7 55.8   0.2 3.0   0.1 S | 173 8.4   2.1 0.00 0.00 81.6   1.5 44.5   0.9
Max     74.2 71 57.1 7.0 - 11.5 0.00 0.00 93.2 52.8
Avg     68.9 59 53.7 3.2 - 6.9 0.00 - - -
Min     64.7 42 48.5 0.0 - 0.1 0.00 0.00 77.6 40.8